Time;durP1;ratioP1;P1;durP2;ratioP2;P2;SDS_P1;SDS_P2;PMS_P1;PMS_P2;Temp;Humidity;BMP_temperature;BMP_pressure;BME280_temperature;BME280_humidity;BME280_pressure;Samples;Min_cycle;Max_cycle;Signal;HPM_P1;HPM_P2
2022/01/19 00:00:18;;;;;;;3.08;1.85;;;-2.70;1.40;;;-2.04;100.00;96832.96;647846;216;32059;-76
2022/01/19 00:02:59;;;;;;;1.00;0.60;;;-2.80;1.40;;;-2.09;100.00;96823.04;647010;216;31709;-77
2022/01/19 00:05:41;;;;;;;0.50;0.45;;;-2.90;1.40;;;-2.17;100.00;96806.00;643257;212;31802;-77
2022/01/19 00:10:59;;;;;;;0.80;0.40;;;-2.80;1.40;;;-2.18;100.00;96784.00;630772;222;31754;-76
2022/01/19 00:13:47;;;;;;;1.10;0.50;;;-2.90;1.40;;;-2.25;100.00;96776.05;647685;212;31547;-76
2022/01/19 00:16:28;;;;;;;0.40;0.40;;;-3.00;1.40;;;-2.16;100.00;96774.71;648296;212;31558;-77
2022/01/19 00:19:10;;;;;;;1.30;1.00;;;-2.80;1.40;;;-2.09;100.00;96778.42;647988;216;42164;-76
2022/01/19 00:21:52;;;;;;;0.40;0.40;;;-2.80;1.40;;;-2.02;100.00;96769.91;646596;216;31529;-76
2022/01/19 00:24:34;;;;;;;5.18;1.08;;;-2.60;1.40;;;-2.04;100.00;96768.98;620949;222;31859;-76
2022/01/19 00:27:21;;;;;;;1.10;1.00;;;-2.60;1.40;;;-1.95;100.00;96764.66;646510;213;31612;-73
2022/01/19 00:30:09;;;;;;;1.40;1.20;;;-2.40;1.40;;;-1.79;100.00;96772.30;649286;212;31463;-76
2022/01/19 00:32:51;;;;;;;1.40;0.60;;;-2.10;1.40;;;-1.79;100.00;96770.04;619922;226;31926;-76
2022/01/19 00:35:52;;;;;;;1.20;0.60;;;-2.30;1.40;;;-1.72;100.00;96763.50;647090;216;31645;-77
2022/01/19 00:38:36;;;;;;;1.10;1.00;;;-2.00;1.40;;;-1.71;100.00;96756.17;645776;216;31535;-73
2022/01/19 00:41:23;;;;;;;0.40;0.40;;;-2.10;1.40;;;-1.79;100.00;96757.79;646692;216;32277;-76
2022/01/19 00:44:08;;;;;;;1.40;0.88;;;-2.20;1.40;;;-1.84;100.00;96755.89;620311;226;42455;-75
2022/01/19 00:46:51;;;;;;;0.90;0.60;;;-2.30;1.40;;;-1.88;100.00;96749.27;648385;212;31563;-76
2022/01/19 00:49:39;;;;;;;0.55;0.55;;;-2.20;1.40;;;-1.81;100.00;96736.38;619380;222;32053;-74
2022/01/19 00:52:20;;;;;;;0.85;0.85;;;-2.20;1.40;;;-1.81;100.00;96734.53;645992;216;42151;-73
2022/01/19 00:55:08;;;;;;;0.90;0.90;;;-2.10;1.40;;;-1.77;100.00;96731.40;648431;216;31500;-74
2022/01/19 00:57:55;;;;;;;0.40;0.40;;;-2.10;1.40;;;-1.71;100.00;96722.94;619790;222;31918;-76
2022/01/19 01:03:17;;;;;;;1.30;0.60;;;-2.10;1.40;;;-1.71;100.00;96723.25;645689;216;31497;-73
2022/01/19 01:06:05;;;;;;;0.60;0.60;;;-2.20;1.40;;;-1.68;100.00;96715.13;647209;216;31580;-76
2022/01/19 01:08:47;;;;;;;0.65;0.43;;;-2.10;1.40;;;-1.74;100.00;96707.39;647432;212;42114;-76
2022/01/19 01:11:32;;;;;;;0.90;0.50;;;-2.10;1.40;;;-1.83;100.00;96702.83;619857;222;31905;-76
2022/01/19 01:17:12;;;;;;;0.60;0.60;;;-2.40;1.40;;;-1.94;100.00;96697.88;620478;225;32174;-77
2022/01/19 01:19:43;;;;;;;0.40;0.40;;;-2.60;1.40;;;-2.01;100.00;96687.33;646411;216;31876;-76
2022/01/19 01:22:31;;;;;;;0.73;0.73;;;-2.60;1.40;;;-2.10;100.00;96675.17;645716;214;31695;-76
2022/01/19 01:25:22;;;;;;;0.60;0.50;;;-2.80;1.40;;;-2.11;100.00;96665.60;646258;216;31466;-76
2022/01/19 01:28:04;;;;;;;0.80;0.80;;;-2.80;1.40;;;-2.15;100.00;96652.81;647496;212;31510;-76
2022/01/19 01:30:48;;;;;;;0.90;0.80;;;-2.80;1.40;;;-2.19;100.00;96646.03;648589;212;31644;-78
2022/01/19 01:35:55;;;;;;;0.80;0.80;;;-2.90;1.40;;;-2.21;100.00;96650.90;647147;212;31523;-77
2022/01/19 01:38:38;;;;;;;0.40;0.40;;;-2.80;1.40;;;-2.13;100.00;96657.18;621062;226;43158;-76
2022/01/19 01:41:20;;;;;;;1.30;1.10;;;-2.70;1.40;;;-2.12;100.00;96660.88;647955;216;31450;-77
2022/01/19 01:44:01;;;;;;;0.40;0.40;;;-2.60;1.40;;;-2.17;100.00;96660.92;620631;222;31894;-77
2022/01/19 01:46:49;;;;;;;0.40;0.30;;;-2.80;1.40;;;-2.20;100.00;96660.40;619356;226;32390;-75
2022/01/19 01:55:16;;;;;;;0.70;0.70;;;-3.00;1.40;;;-2.35;100.00;96638.59;646737;216;31517;-77
2022/01/19 01:57:59;;;;;;;1.90;0.70;;;-3.00;1.40;;;-2.24;100.00;96629.44;646362;212;31645;-76
2022/01/19 02:00:42;;;;;;;2.20;0.70;;;-2.80;1.40;;;-2.25;100.00;96625.52;647333;212;31524;-74
2022/01/19 02:03:24;;;;;;;0.90;0.90;;;-2.90;1.40;;;-2.21;100.00;96615.27;647283;216;31539;-75
2022/01/19 02:09:01;;;;;;;4.70;1.10;;;-3.00;1.40;;;-2.26;100.00;96602.86;647305;212;31648;-77
2022/01/19 02:23:16;;;;;;;0.40;0.40;;;-3.20;1.40;;;-2.53;100.00;96578.18;647012;216;31596;-77
2022/01/19 02:25:53;;;;;;;3.70;0.60;;;-3.30;1.40;;;-2.60;100.00;96575.19;646825;212;42113;-77
2022/01/19 02:41:30;;;;;;;0.68;0.52;;;-3.80;1.40;;;-2.91;100.00;96555.44;619156;222;32032;-77
2022/01/19 02:50:24;;;;;;;0.50;0.40;;;-3.50;1.40;;;-2.85;100.00;96545.55;646631;216;31527;-73
2022/01/19 02:53:11;;;;;;;0.50;0.40;;;-3.50;1.40;;;-2.84;100.00;96548.89;647641;214;31681;-76
2022/01/19 02:55:55;;;;;;;0.40;0.40;;;-3.50;1.40;;;-2.89;100.00;96547.56;645864;216;31508;-76
2022/01/19 02:58:42;;;;;;;0.50;0.50;;;-3.40;1.40;;;-2.93;100.00;96543.81;647504;216;31518;-77
2022/01/19 03:09:54;;;;;;;0.93;0.93;;;-3.90;1.40;;;-3.12;100.00;96542.91;646711;216;31741;-76
2022/01/19 03:12:34;;;;;;;1.90;0.70;;;-4.00;1.40;;;-3.19;100.00;96542.52;646622;216;31524;-77
2022/01/19 03:15:18;;;;;;;0.40;0.30;;;-4.00;1.40;;;-3.27;100.00;96541.79;647241;212;31516;-74
2022/01/19 03:18:06;;;;;;;0.40;0.30;;;-4.10;1.40;;;-3.21;100.00;96546.80;647345;212;31584;-77
2022/01/19 03:20:48;;;;;;;0.40;0.40;;;-4.00;1.40;;;-3.08;100.00;96536.98;647417;212;31491;-76
2022/01/19 03:23:29;;;;;;;1.20;0.93;;;-3.80;1.40;;;-3.18;100.00;96541.19;647531;212;31935;-76
2022/01/19 03:26:11;;;;;;;0.40;0.30;;;-3.90;1.40;;;-3.24;100.00;96551.14;646017;216;31495;-77
2022/01/19 03:28:55;;;;;;;3.10;0.60;;;-3.90;1.40;;;-3.17;100.00;96538.90;646940;216;31561;-72
2022/01/19 03:31:42;;;;;;;0.80;0.40;;;-3.70;1.40;;;-3.21;100.00;96533.95;647040;212;31579;-77
2022/01/19 03:35:57;;;;;;;0.52;0.47;;;-3.90;1.40;;;-3.29;100.00;96530.84;648018;216;31519;-73
2022/01/19 03:38:42;;;;;;;0.70;0.60;;;-3.80;1.40;;;-3.31;100.00;96532.56;647612;216;31651;-78
2022/01/19 03:41:30;;;;;;;0.60;0.50;;;-3.90;1.40;;;-3.32;100.00;96535.05;645611;216;31581;-76
2022/01/19 03:44:12;;;;;;;0.40;0.40;;;-4.00;1.40;;;-3.36;100.00;96532.47;646180;216;31486;-73
2022/01/19 03:46:59;;;;;;;0.70;0.70;;;-4.10;1.40;;;-3.43;100.00;96531.56;648151;212;32064;-75
2022/01/19 03:49:40;;;;;;;0.50;0.40;;;-4.10;1.40;;;-3.51;100.00;96529.70;647846;216;31808;-77
2022/01/19 03:52:22;;;;;;;0.50;0.40;;;-4.20;1.40;;;-3.45;100.00;96528.30;647158;216;42376;-75
2022/01/19 03:55:06;;;;;;;1.60;0.40;;;-4.10;1.40;;;-3.49;100.00;96525.25;630828;221;31802;-75
2022/01/19 03:57:54;;;;;;;0.50;0.40;;;-4.20;1.40;;;-3.66;100.00;96527.64;646339;216;31494;-77
2022/01/19 04:00:42;;;;;;;0.40;0.30;;;-4.40;1.40;;;-3.79;100.00;96526.19;619204;226;31924;-75
2022/01/19 04:03:23;;;;;;;0.50;0.40;;;-4.50;1.40;;;-3.84;100.00;96527.14;631062;217;31737;-74
2022/01/19 04:06:14;;;;;;;1.50;0.40;;;-4.50;1.40;;;-3.78;100.00;96531.13;616956;226;32020;-73
2022/01/19 04:08:48;;;;;;;0.90;0.70;;;-4.30;1.40;;;-3.48;100.00;96534.27;647083;216;31763;-77
2022/01/19 04:11:36;;;;;;;0.40;0.30;;;-4.00;1.40;;;-3.18;100.00;96538.45;647291;212;31579;-73
2022/01/19 04:14:21;;;;;;;1.30;0.70;;;-3.70;1.40;;;-3.02;100.00;96533.33;618695;226;32471;-73
2022/01/19 04:19:46;;;;;;;0.43;0.37;;;-3.50;1.40;;;-2.66;100.00;96538.73;635637;217;31801;-77
2022/01/19 04:22:26;;;;;;;2.50;0.50;;;-3.30;1.40;;;-2.46;100.00;96538.52;647396;216;31490;-77
2022/01/19 04:25:08;;;;;;;0.40;0.30;;;-3.20;1.40;;;-2.24;100.00;96539.16;646502;216;31570;-78
2022/01/19 04:27:49;;;;;;;1.00;0.80;;;-3.00;1.40;;;-2.10;100.00;96527.47;618916;226;31828;-77
2022/01/19 04:30:33;;;;;;;0.70;0.70;;;-3.00;1.40;;;-2.10;100.00;96518.03;647587;216;31505;-74
2022/01/19 04:36:18;;;;;;;0.60;0.60;;;-3.30;1.40;;;-2.45;100.00;96510.34;647509;216;31681;-77
2022/01/19 04:44:30;;;;;;;7.80;0.70;;;-3.10;1.40;;;-2.52;100.00;96515.50;646232;216;31525;-74
2022/01/19 05:04:23;;;;;;;0.82;0.65;;;-3.20;1.40;;;-2.40;100.00;96509.45;647802;212;31657;-73
2022/01/19 05:07:02;;;;;;;2.50;1.20;;;-3.10;1.40;;;-2.27;100.00;96505.73;639852;216;31784;-76
2022/01/19 05:15:29;;;;;;;1.62;0.80;;;-2.60;1.40;;;-2.04;100.00;96482.63;645745;216;31565;-73
2022/01/19 05:18:18;;;;;;;0.50;0.50;;;-2.50;1.40;;;-1.98;100.00;96476.08;646399;216;31603;-77
2022/01/19 05:21:05;;;;;;;0.80;0.80;;;-2.50;1.40;;;-1.98;100.00;96474.32;646011;216;31598;-76
2022/01/19 05:23:46;;;;;;;0.80;0.57;;;-2.40;1.40;;;-1.95;100.00;96478.11;646619;216;31606;-73
2022/01/19 05:26:38;;;;;;;0.60;0.60;;;-2.40;1.40;;;-1.69;100.00;96471.42;620779;222;31915;-76
2022/01/19 05:29:21;;;;;;;1.40;1.23;;;-2.30;1.40;;;-1.42;100.00;96473.13;643933;212;31587;-76
2022/01/19 05:32:09;;;;;;;0.50;0.47;;;-2.20;1.40;;;-1.57;100.00;96471.92;646168;216;31640;-77
2022/01/19 05:35:57;;;;;;;1.70;1.60;;;-2.20;1.40;;;-1.58;100.00;96471.06;646655;216;31493;-75
2022/01/19 05:38:44;;;;;;;0.90;0.90;;;-2.20;1.40;;;-1.55;100.00;96466.98;646592;212;31538;-77
2022/01/19 05:41:26;;;;;;;0.40;0.40;;;-2.10;1.40;;;-1.44;100.00;96467.09;646664;212;31731;-76
2022/01/19 05:44:14;;;;;;;1.05;1.05;;;-2.10;1.40;;;-1.40;100.00;96458.95;647568;216;31501;-74
2022/01/19 05:46:55;;;;;;;1.75;1.65;;;-2.10;1.40;;;-1.51;100.00;96464.45;646840;212;31572;-74
2022/01/19 05:49:37;;;;;;;1.30;1.20;;;-2.00;1.40;;;-1.38;100.00;96463.25;646246;216;32130;-73
2022/01/19 05:52:19;;;;;;;3.10;1.00;;;-2.00;1.40;;;-1.40;100.00;96463.10;646133;216;32140;-76
2022/01/19 05:55:01;;;;;;;1.25;1.15;;;-1.90;1.40;;;-1.18;100.00;96461.30;647490;216;31655;-76
2022/01/19 05:57:45;;;;;;;2.60;1.30;;;-1.90;1.40;;;-1.13;100.00;96454.80;647000;216;31512;-77
2022/01/19 06:00:28;;;;;;;0.90;0.60;;;-1.80;1.40;;;-1.15;100.00;96453.41;647405;212;31559;-76
2022/01/19 06:03:17;;;;;;;1.30;1.12;;;-1.80;1.40;;;-0.98;100.00;96458.97;646129;216;31582;-77
2022/01/19 06:05:58;;;;;;;1.60;0.95;;;-1.80;1.40;;;-0.92;100.00;96453.88;640886;216;31765;-77
2022/01/19 06:08:48;;;;;;;1.35;1.05;;;-1.70;1.40;;;-0.90;100.00;96450.52;646660;216;31582;-76
2022/01/19 06:11:33;;;;;;;0.70;0.60;;;-1.70;1.40;;;-0.89;100.00;96445.56;632009;217;31696;-77
2022/01/19 06:14:15;;;;;;;3.00;1.80;;;-1.60;1.40;;;-0.85;100.00;96443.79;647756;212;31473;-78
2022/01/19 06:17:03;;;;;;;1.60;0.80;;;-1.60;1.40;;;-0.82;100.00;96442.47;618641;222;31887;-75
2022/01/19 06:19:47;;;;;;;0.77;0.60;;;-1.50;1.40;;;-0.69;100.00;96445.19;641553;214;31957;-76
2022/01/19 06:22:32;;;;;;;0.90;0.90;;;-1.40;1.40;;;-0.62;100.00;96442.16;647238;216;31635;-77
2022/01/19 06:25:20;;;;;;;1.08;1.00;;;-1.30;1.40;;;-0.60;100.00;96435.72;647124;212;31498;-75
2022/01/19 06:28:08;;;;;;;1.20;0.60;;;-1.20;1.40;;;-0.55;100.00;96434.45;647106;212;31531;-77
2022/01/19 06:30:49;;;;;;;2.30;1.50;;;-1.10;1.40;;;-0.51;100.00;96425.16;647341;212;32194;-77
2022/01/19 06:35:57;;;;;;;5.40;1.87;;;-1.00;1.40;;;-0.46;100.00;96425.52;645584;216;31882;-76
2022/01/19 06:38:45;;;;;;;2.22;1.08;;;-1.00;1.40;;;-0.49;100.00;96426.14;645764;212;31547;-77
2022/01/19 06:41:28;;;;;;;2.45;1.60;;;-0.90;1.40;;;-0.45;100.00;96424.00;620067;226;31884;-78
2022/01/19 06:44:19;;;;;;;2.72;1.85;;;-0.90;1.40;;;-0.34;100.00;96423.45;646695;216;42197;-74
2022/01/19 06:47:07;;;;;;;2.33;1.83;;;-0.90;1.40;;;-0.36;100.00;96416.79;645847;216;31560;-77
2022/01/19 06:49:48;;;;;;;2.25;1.52;;;-0.90;1.40;;;-0.31;100.00;96413.40;646236;212;31646;-77
2022/01/19 06:52:33;;;;;;;2.10;1.90;;;-0.80;1.40;;;-0.21;100.00;96414.55;646839;212;31535;-79
2022/01/19 06:55:21;;;;;;;2.03;1.83;;;-0.80;1.40;;;-0.22;100.00;96412.06;646890;214;32165;-76
2022/01/19 06:58:03;;;;;;;2.30;2.20;;;-0.70;1.40;;;-0.09;100.00;96417.18;642616;216;31573;-74
2022/01/19 07:00:47;;;;;;;1.40;1.23;;;-0.70;1.40;;;-0.01;100.00;96408.84;646633;212;31562;-77
2022/01/19 07:03:35;;;;;;;3.15;1.87;;;-0.70;1.40;;;0.04;100.00;96410.45;647199;216;31989;-78
2022/01/19 07:06:19;;;;;;;2.00;1.62;;;-0.60;1.40;;;0.06;100.00;96399.98;642115;216;42337;-76
2022/01/19 07:09:04;;;;;;;2.37;2.17;;;-0.60;1.40;;;0.17;100.00;96412.11;645648;216;42192;-74
2022/01/19 07:11:48;;;;;;;4.10;2.25;;;-0.60;1.40;;;0.34;100.00;96407.55;647707;216;42186;-78
2022/01/19 07:14:36;;;;;;;3.95;1.90;;;-0.50;1.40;;;0.32;100.00;96410.61;619124;225;42830;-77
2022/01/19 07:17:18;;;;;;;4.10;2.28;;;-0.50;1.40;;;0.32;100.00;96406.67;646505;216;31525;-74
2022/01/19 07:20:07;;;;;;;1.52;1.40;;;-0.40;1.40;;;0.22;100.00;96405.32;647992;216;31601;-78
2022/01/19 07:22:56;;;;;;;2.00;1.70;;;-0.40;1.40;;;0.30;100.00;96400.64;645075;214;42166;-74
2022/01/19 07:25:36;;;;;;;2.30;1.70;;;-0.40;1.40;;;0.36;100.00;96395.59;647867;214;31630;-74
2022/01/19 07:28:21;;;;;;;2.20;2.00;;;-0.30;1.40;;;0.34;100.00;96384.77;647636;212;42538;-75
2022/01/19 07:31:03;;;;;;;2.60;2.10;;;-0.30;1.40;;;0.35;100.00;96377.02;646530;214;31601;-75
2022/01/19 07:35:52;;;;;;;4.28;2.08;;;-0.30;1.40;;;0.60;100.00;96375.31;647403;216;42213;-78
2022/01/19 07:38:40;;;;;;;3.10;1.90;;;-0.20;1.40;;;0.58;100.00;96373.13;645870;213;42230;-76
2022/01/19 07:41:24;;;;;;;4.55;2.20;;;-0.10;1.40;;;0.64;100.00;96374.11;647192;216;42892;-74
2022/01/19 07:46:40;;;;;;;2.95;2.28;;;-0.10;1.40;;;0.61;100.00;96368.45;647355;212;42220;-76
2022/01/19 07:49:22;;;;;;;1.40;1.12;;;-0.10;1.40;;;0.51;100.00;96370.67;647122;216;42148;-75
2022/01/19 07:52:07;;;;;;;2.58;2.37;;;-0.10;1.40;;;0.52;100.00;96365.66;645992;216;42952;-74
2022/01/19 07:54:48;;;;;;;4.03;2.80;;;0.00;1.40;;;0.78;100.00;96367.88;646090;216;31612;-77
2022/01/19 07:57:33;;;;;;;2.55;2.20;;;0.00;1.40;;;0.88;100.00;96377.08;646784;216;32198;-74
2022/01/19 08:00:21;;;;;;;2.27;1.50;;;0.00;1.40;;;1.13;100.00;96381.66;647305;216;31560;-78
2022/01/19 08:03:09;;;;;;;2.60;2.40;;;0.20;1.40;;;1.06;100.00;96388.04;619301;222;33017;-74
2022/01/19 08:05:57;;;;;;;2.00;1.90;;;0.20;1.40;;;1.10;100.00;96386.71;648311;216;23545;-78
2022/01/19 08:08:44;;;;;;;3.00;2.50;;;0.10;1.40;;;1.33;100.00;96383.91;645998;212;31619;-77
2022/01/19 08:11:26;;;;;;;1.65;1.55;;;0.30;1.40;;;1.40;100.00;96381.28;646847;216;31700;-76
2022/01/19 08:18:41;;;;;;;2.00;1.90;;;0.10;1.40;;;1.01;100.00;96375.89;642124;217;31642;-78
2022/01/19 08:21:29;;;;;;;2.90;2.50;;;0.30;1.40;;;0.93;100.00;96368.59;647158;216;31538;-75
2022/01/19 08:24:12;;;;;;;3.42;2.95;;;0.20;1.40;;;0.90;100.00;96361.69;647276;212;32215;-78
2022/01/19 08:27:03;;;;;;;3.22;2.92;;;0.20;1.40;;;0.76;100.00;96365.17;647467;216;31716;-74
2022/01/19 08:29:51;;;;;;;2.25;1.98;;;0.10;1.40;;;0.89;100.00;96360.02;620530;226;31932;-79
2022/01/19 08:32:39;;;;;;;5.32;3.20;;;0.30;1.40;;;0.93;100.00;96361.30;643144;216;31552;-77
2022/01/19 08:35:54;;;;;;;2.67;2.47;;;0.20;1.40;;;0.86;100.00;96354.78;646626;215;31832;-75
2022/01/19 08:38:36;;;;;;;2.55;1.87;;;0.20;1.40;;;0.73;100.00;96351.22;646779;216;31673;-77
2022/01/19 08:41:20;;;;;;;6.05;2.97;;;0.00;1.40;;;0.90;100.00;96346.53;647698;216;31554;-78
2022/01/19 08:44:02;;;;;;;2.55;2.10;;;0.20;1.40;;;0.90;100.00;96345.05;631305;221;31947;-78
2022/01/19 08:46:48;;;;;;;3.12;2.83;;;0.20;1.40;;;0.90;100.00;96341.03;619657;222;32048;-74
2022/01/19 08:49:30;;;;;;;3.62;2.33;;;0.20;1.40;;;1.02;100.00;96346.32;646503;216;31541;-77
2022/01/19 08:52:12;;;;;;;2.12;1.48;;;0.20;1.40;;;1.03;100.00;96348.13;646242;212;31587;-77
2022/01/19 08:54:56;;;;;;;2.47;2.28;;;0.30;1.40;;;1.17;100.00;96340.16;646695;212;31564;-78
2022/01/19 08:57:37;;;;;;;1.85;1.75;;;0.40;1.40;;;0.87;100.00;96340.67;643614;215;31565;-78
2022/01/19 09:00:19;;;;;;;5.40;3.50;;;0.20;1.40;;;0.99;100.00;96342.67;620303;226;32009;-78
2022/01/19 09:03:01;;;;;;;2.60;2.40;;;0.30;1.40;;;1.13;100.00;96346.30;619457;226;32122;-79
2022/01/19 09:05:43;;;;;;;2.80;2.42;;;0.30;1.40;;;1.10;100.00;96343.88;642668;216;31709;-77
2022/01/19 09:08:24;;;;;;;3.15;2.33;;;0.30;1.40;;;1.19;100.00;96343.75;619605;226;31908;-78
2022/01/19 09:11:09;;;;;;;2.80;2.60;;;0.30;1.40;;;1.06;100.00;96346.99;647160;216;31572;-74
2022/01/19 09:13:56;;;;;;;2.03;1.65;;;0.30;1.40;;;1.25;100.00;96343.34;630910;222;31781;-78
2022/01/19 09:16:37;;;;;;;2.30;1.95;;;0.40;1.40;;;1.45;100.00;96340.83;647308;212;31590;-78
2022/01/19 09:19:19;;;;;;;4.05;3.00;;;0.50;1.40;;;1.69;100.00;96341.80;646899;216;31584;-78
2022/01/19 09:22:03;;;;;;;2.35;2.20;;;0.50;1.40;;;1.63;100.00;96345.46;647564;216;31543;-78
2022/01/19 09:24:45;;;;;;;2.72;1.55;;;0.60;1.40;;;1.65;100.00;96343.48;647704;216;31589;-77
2022/01/19 09:27:27;;;;;;;2.80;2.53;;;0.70;1.40;;;1.86;100.00;96332.47;646861;212;31594;-79
2022/01/19 09:30:14;;;;;;;2.97;2.70;;;1.00;1.40;;;2.67;100.00;96335.56;619563;222;32064;-77
2022/01/19 09:36:17;;;;;;;7.03;5.00;;;2.70;1.40;;;5.35;100.00;96334.02;642872;216;31766;-78
2022/01/19 09:38:50;;;;;;;4.90;3.40;;;5.60;1.40;;;6.94;100.00;96323.83;619733;222;31868;-78
2022/01/19 09:41:32;;;;;;;5.80;3.72;;;6.50;1.40;;;8.06;100.00;96319.94;647250;216;31528;-78
2022/01/19 09:44:17;;;;;;;4.47;3.37;;;8.20;1.40;;;11.67;86.57;96309.83;646789;212;31594;-75
2022/01/19 09:47:04;;;;;;;5.20;3.50;;;8.90;1.40;;;12.98;90.27;96301.70;619136;226;31951;-78
2022/01/19 09:49:46;;;;;;;5.87;4.00;;;9.90;1.40;;;12.96;78.20;96296.90;619368;222;42575;-78
2022/01/19 09:52:29;;;;;;;4.65;3.20;;;9.20;1.40;;;11.77;83.54;96295.88;618880;222;32292;-78
2022/01/19 09:55:11;;;;;;;4.97;3.20;;;7.60;1.40;;;11.84;79.00;96292.72;619431;226;31907;-79
2022/01/19 09:57:53;;;;;;;5.85;4.20;;;7.50;1.40;;;11.95;75.63;96290.59;647306;216;31572;-77
2022/01/19 10:00:36;;;;;;;3.62;3.20;;;7.50;1.40;;;12.44;68.83;96285.91;631859;221;31845;-77
2022/01/19 10:03:22;;;;;;;5.43;3.40;;;8.70;1.40;;;11.74;71.25;96278.86;647753;212;31654;-78
2022/01/19 10:06:07;;;;;;;4.70;3.43;;;6.70;1.40;;;11.15;80.58;96270.53;619495;222;31904;-77
2022/01/19 10:08:53;;;;;;;5.40;3.78;;;7.00;1.40;;;11.56;79.56;96266.89;647121;216;31530;-77
2022/01/19 10:17:30;;;;;;;5.18;3.58;;;8.80;1.40;;;13.49;60.26;96253.73;647072;212;31768;-78
2022/01/19 10:20:21;;;;;;;4.25;3.05;;;9.10;1.40;;;15.05;69.77;96245.50;647795;212;31685;-79
2022/01/19 10:23:04;;;;;;;4.43;2.50;;;10.10;1.40;;;13.51;57.18;96242.43;647159;212;31587;-78
2022/01/19 10:28:03;;;;;;;5.37;3.80;;;9.10;1.40;;;15.10;57.01;96224.73;647419;212;31839;-78
2022/01/19 10:30:46;;;;;;;3.55;2.90;;;10.20;1.40;;;15.34;62.47;96220.06;619023;226;31896;-77
2022/01/19 10:38:31;;;;;;;4.53;3.70;;;9.20;1.40;;;16.49;61.74;96208.91;646850;212;31714;-76
2022/01/19 10:41:13;;;;;;;4.50;3.30;;;10.90;1.40;;;16.96;52.61;96209.95;618694;222;32053;-76
2022/01/19 10:43:54;;;;;;;4.55;3.75;;;11.10;1.40;;;15.81;48.01;96197.67;646321;216;42164;-76
2022/01/19 10:46:39;;;;;;;4.85;4.00;;;9.70;1.40;;;13.41;50.99;96202.59;647235;216;42716;-75
2022/01/19 10:49:25;;;;;;;4.37;3.50;;;8.20;1.40;;;15.93;58.05;96182.25;647301;216;42897;-79
2022/01/19 10:52:08;;;;;;;4.60;3.60;;;10.40;1.40;;;17.22;47.50;96180.61;647571;212;32600;-77
2022/01/19 10:54:57;;;;;;;5.65;3.50;;;12.30;1.40;;;17.64;47.32;96172.33;647296;212;31588;-76
2022/01/19 10:57:39;;;;;;;4.82;4.15;;;12.70;1.40;;;17.49;48.58;96172.28;647013;216;32847;-78
2022/01/19 11:00:28;;;;;;;3.75;3.33;;;12.60;1.40;;;16.09;51.97;96165.43;641957;216;32125;-76
2022/01/19 11:03:17;;;;;;;4.75;3.70;;;11.90;1.40;;;17.55;43.41;96162.63;618116;226;32775;-76
2022/01/19 11:06:01;;;;;;;5.85;3.70;;;12.70;1.40;;;19.29;44.74;96157.47;647395;216;31588;-75
2022/01/19 11:11:21;;;;;;;4.47;3.53;;;13.50;1.40;;;18.31;44.18;96156.61;632455;217;31947;-77
2022/01/19 11:14:04;;;;;;;4.28;3.50;;;14.00;1.40;;;16.02;43.73;96156.05;646278;212;31594;-77
2022/01/19 11:16:48;;;;;;;3.40;3.10;;;11.30;1.40;;;17.84;50.24;96153.35;646999;216;32348;-76
2022/01/19 11:19:29;;;;;;;4.20;3.65;;;13.00;1.40;;;19.69;40.47;96140.15;618880;225;32409;-76
2022/01/19 11:22:22;;;;;;;6.78;3.65;;;14.60;1.40;;;21.00;39.00;96139.61;646553;212;32211;-77
2022/01/19 11:25:27;;;;;;;4.68;3.83;;;14.30;1.40;;;21.41;40.83;96133.16;619844;222;31994;-78
2022/01/19 11:28:26;;;;;;;3.92;3.10;;;15.20;1.40;;;20.89;37.41;96129.16;630788;217;31703;-76
2022/01/19 11:31:14;;;;;;;4.72;3.60;;;15.60;1.40;;;17.96;38.50;96132.61;646026;212;31559;-77
2022/01/19 11:35:58;;;;;;;4.10;3.40;;;13.60;1.40;;;16.81;41.20;96129.63;642333;217;31561;-76
2022/01/19 11:38:42;;;;;;;5.35;4.12;;;12.60;1.40;;;19.66;42.70;96118.05;647976;216;31745;-77
2022/01/19 11:41:47;;;;;;;4.12;3.50;;;14.80;1.40;;;21.50;37.34;96112.43;619053;222;32484;-77
2022/01/19 11:44:37;;;;;;;5.53;3.95;;;15.80;1.40;;;23.62;35.12;96103.27;646611;212;31730;-76
2022/01/19 11:47:21;;;;;;;4.00;3.60;;;16.30;1.40;;;22.38;38.23;96107.42;646016;216;31965;-76
2022/01/19 11:50:05;;;;;;;4.05;3.33;;;16.20;1.40;;;22.13;35.45;96102.84;646723;216;32248;-76
2022/01/19 11:53:08;;;;;;;5.93;3.05;;;15.50;1.40;;;23.82;33.75;96088.73;645562;216;31672;-76
2022/01/19 11:55:43;;;;;;;3.85;3.45;;;17.00;1.40;;;23.37;34.63;96088.27;647049;216;31584;-76
2022/01/19 11:58:26;;;;;;;3.47;3.15;;;17.40;1.40;;;21.85;33.80;96087.57;647855;216;31559;-77
2022/01/19 12:01:24;;;;;;;3.95;2.85;;;16.10;1.40;;;21.26;36.87;96087.07;620194;222;32086;-78
2022/01/19 12:04:16;;;;;;;3.90;3.22;;;15.00;1.40;;;20.39;35.96;96083.58;647016;212;31653;-77
2022/01/19 12:06:57;;;;;;;3.53;3.12;;;14.70;1.40;;;20.53;35.76;96081.21;611670;226;42705;-77
2022/01/19 12:09:55;;;;;;;4.97;3.40;;;14.90;1.40;;;20.31;36.20;96071.95;646879;216;31598;-75
2022/01/19 12:12:55;;;;;;;3.97;3.53;;;13.90;1.40;;;19.60;37.19;96071.58;646630;212;31771;-76
2022/01/19 12:15:52;;;;;;;3.30;3.00;;;13.10;1.40;;;17.44;39.14;96065.08;646173;216;31754;-76
2022/01/19 12:18:53;;;;;;;3.67;3.20;;;11.80;1.40;;;17.27;39.85;96059.66;647860;216;31785;-77
2022/01/19 12:22:13;;;;;;;4.32;3.22;;;11.70;1.40;;;16.44;39.56;96053.27;646948;216;32091;-78
2022/01/19 12:25:00;;;;;;;3.87;3.47;;;11.90;1.40;;;16.34;40.72;96050.68;646749;216;32147;-75
2022/01/19 12:27:46;;;;;;;4.37;3.00;;;11.90;1.40;;;15.86;41.99;96051.92;619617;226;43184;-76
2022/01/19 12:30:31;;;;;;;5.25;3.20;;;12.10;1.40;;;17.25;40.70;96039.61;647503;212;31958;-77
2022/01/19 12:35:51;;;;;;;4.50;2.85;;;12.20;1.40;;;15.62;41.33;96028.83;619602;225;32541;-75
2022/01/19 12:38:35;;;;;;;3.55;2.80;;;11.80;1.40;;;12.25;46.48;96026.20;619544;222;31932;-75
2022/01/19 12:41:24;;;;;;;4.87;3.30;;;9.90;1.40;;;11.74;50.13;96021.38;647249;216;31564;-78
2022/01/19 12:46:59;;;;;;;3.92;2.95;;;9.90;1.40;;;11.30;54.20;96020.66;616065;224;31903;-79
2022/01/19 12:49:47;;;;;;;4.00;3.05;;;9.30;1.40;;;11.47;54.68;96011.41;647600;216;31558;-76
2022/01/19 12:52:32;;;;;;;4.80;3.72;;;9.50;1.40;;;11.83;53.12;96009.63;647427;216;31665;-78
2022/01/19 12:55:15;;;;;;;3.70;2.80;;;10.00;1.40;;;11.23;55.06;96005.51;620038;226;31908;-80
2022/01/19 12:57:59;;;;;;;3.00;2.47;;;10.50;1.40;;;12.04;51.85;95997.48;647185;212;32147;-79
2022/01/19 13:00:43;;;;;;;3.50;2.60;;;9.80;1.40;;;11.62;52.39;95997.94;646682;216;31566;-75
2022/01/19 13:03:28;;;;;;;4.78;2.90;;;9.00;1.40;;;10.66;56.89;95993.48;645256;216;31571;-75
2022/01/19 13:06:10;;;;;;;3.03;2.60;;;9.10;1.40;;;11.64;55.60;95986.39;644540;216;31684;-74
2022/01/19 13:09:06;;;;;;;4.53;3.40;;;10.00;1.40;;;12.49;51.67;95977.00;647550;216;31642;-75
2022/01/19 13:14:14;;;;;;;3.50;2.70;;;13.20;1.40;;;14.03;46.01;95970.00;618148;222;31923;-78
2022/01/19 13:16:56;;;;;;;3.90;2.65;;;13.30;1.40;;;13.10;48.50;95969.76;620072;222;31970;-79
2022/01/19 13:19:38;;;;;;;4.07;3.00;;;11.90;1.40;;;14.20;46.88;95957.77;647644;216;31634;-79
2022/01/19 13:22:22;;;;;;;3.17;2.50;;;13.20;1.40;;;14.67;45.00;95958.70;618172;226;32056;-75
2022/01/19 13:25:19;;;;;;;3.45;2.30;;;13.20;1.40;;;14.26;45.49;95957.92;647376;212;31539;-77
2022/01/19 13:28:07;;;;;;;3.25;2.62;;;13.50;1.40;;;14.93;44.05;95952.28;631376;220;31746;-75
2022/01/19 13:30:57;;;;;;;3.33;2.47;;;13.70;1.40;;;15.01;44.39;95947.22;646848;212;31605;-78
2022/01/19 13:35:58;;;;;;;3.60;2.42;;;13.30;1.40;;;13.84;45.27;95934.88;646715;212;31721;-75
2022/01/19 13:38:46;;;;;;;2.45;2.17;;;12.40;1.40;;;12.98;46.82;95937.45;646747;216;31543;-77
2022/01/19 13:41:33;;;;;;;3.37;2.50;;;12.30;1.40;;;12.70;48.99;95934.96;646149;215;31556;-75
2022/01/19 13:44:16;;;;;;;2.40;2.00;;;11.90;1.40;;;12.26;49.37;95941.19;618030;226;31913;-74
2022/01/19 13:47:16;;;;;;;2.70;2.20;;;11.90;1.40;;;11.94;50.40;95939.95;620030;226;32730;-78
2022/01/19 13:49:56;;;;;;;2.50;1.98;;;11.20;1.40;;;12.30;50.38;95935.93;619825;222;31883;-75
2022/01/19 13:52:41;;;;;;;2.65;2.10;;;10.40;1.40;;;11.79;51.88;95937.54;646386;212;31571;-74
2022/01/19 13:55:24;;;;;;;4.45;2.70;;;11.40;1.40;;;11.81;51.77;95935.06;647026;212;31528;-74
2022/01/19 13:58:11;;;;;;;3.95;2.75;;;11.00;1.40;;;11.63;53.39;95937.28;647052;216;31594;-77